createdAt,value
2022-09-21T00:01:16.191Z,99104.50
2022-09-21T00:03:43.676Z,99103.53
2022-09-21T00:06:13.777Z,99104.41
2022-09-21T00:08:40.491Z,99106.53
2022-09-21T00:11:08.771Z,99108.72
2022-09-21T00:13:37.884Z,99101.78
2022-09-21T00:16:08.422Z,99109.75
2022-09-21T00:18:36.378Z,99110.53
2022-09-21T00:21:08.048Z,99104.56
2022-09-21T00:23:36.190Z,99103.28
2022-09-21T00:26:13.508Z,99106.16
2022-09-21T00:28:40.756Z,99106.94
2022-09-21T00:31:12.171Z,99107.50
2022-09-21T00:33:39.431Z,99109.06
2022-09-21T00:36:07.916Z,99100.00
2022-09-21T00:38:35.098Z,99107.72
2022-09-21T00:41:02.099Z,99107.03
2022-09-21T00:43:28.749Z,99097.13
2022-09-21T00:46:07.306Z,99098.78
2022-09-21T00:48:34.258Z,99106.06
2022-09-21T00:51:06.475Z,99108.59
2022-09-21T00:53:34.117Z,99111.88
2022-09-21T00:56:02.721Z,99101.47
2022-09-21T00:58:33.122Z,99102.06
2022-09-21T01:01:00.543Z,99107.00
2022-09-21T01:03:29.198Z,99106.75
2022-09-21T01:05:56.519Z,99114.63
2022-09-21T01:08:26.089Z,99105.66
2022-09-21T01:11:08.383Z,99111.16
2022-09-21T01:13:43.528Z,99105.41
2022-09-21T01:16:12.670Z,99105.28
2022-09-21T01:19:07.924Z,99112.09
2022-09-21T01:22:03.417Z,99104.03
2022-09-21T01:24:51.131Z,99110.00
2022-09-21T01:27:32.127Z,99109.00
2022-09-21T01:30:05.572Z,99106.34
2022-09-21T01:32:33.738Z,99110.81
2022-09-21T01:35:09.554Z,99114.31
2022-09-21T01:37:40.248Z,99120.41
2022-09-21T01:40:12.712Z,99115.84
2022-09-21T01:42:41.023Z,99121.47
2022-09-21T01:45:09.289Z,99115.78
2022-09-21T01:47:37.522Z,99112.09
2022-09-21T01:50:06.395Z,99121.38
2022-09-21T01:52:48.182Z,99113.59
2022-09-21T01:55:21.899Z,99118.97
2022-09-21T01:58:12.116Z,99117.50
2022-09-21T02:00:40.266Z,99121.69
2022-09-21T02:03:16.091Z,99119.44
2022-09-21T02:05:42.990Z,99121.94
2022-09-21T02:08:10.433Z,99114.38
2022-09-21T02:10:45.066Z,99113.75
2022-09-21T02:13:14.407Z,99119.91
2022-09-21T02:15:51.729Z,99122.88
2022-09-21T02:18:57.764Z,99115.50
2022-09-21T02:21:49.495Z,99105.97
2022-09-21T02:24:27.684Z,99109.25
2022-09-21T02:27:04.364Z,99108.28
2022-09-21T02:29:45.467Z,99107.31
2022-09-21T02:32:38.229Z,99102.69
2022-09-21T02:35:28.441Z,99097.16
2022-09-21T02:38:08.890Z,99099.88
2022-09-21T02:40:41.171Z,99098.00
2022-09-21T02:43:13.715Z,99096.34
2022-09-21T02:45:45.291Z,99102.63
2022-09-21T02:48:17.183Z,99099.16
2022-09-21T02:50:52.842Z,99113.31
2022-09-21T02:53:24.155Z,99116.69
2022-09-21T02:55:55.743Z,99113.22
2022-09-21T02:58:25.985Z,99113.97
2022-09-21T03:00:52.943Z,99109.41
2022-09-21T03:03:24.864Z,99109.00
2022-09-21T03:05:53.554Z,99105.81
2022-09-21T03:08:20.961Z,99111.50
2022-09-21T03:10:51.152Z,99111.34
2022-09-21T03:13:18.901Z,99110.00
2022-09-21T03:15:46.131Z,99106.03
2022-09-21T03:18:13.269Z,99106.03
2022-09-21T03:20:46.028Z,99112.34
2022-09-21T03:23:13.071Z,99111.59
2022-09-21T03:25:39.982Z,99122.09
2022-09-21T03:28:06.932Z,99113.00
2022-09-21T03:30:33.582Z,99119.91
2022-09-21T03:33:00.231Z,99120.00
2022-09-21T03:35:27.014Z,99121.91
2022-09-21T03:37:55.340Z,99130.31
2022-09-21T03:40:22.327Z,99126.94
2022-09-21T03:42:49.328Z,99127.56
2022-09-21T03:45:16.015Z,99129.78
2022-09-21T03:47:42.982Z,99128.28
2022-09-21T03:50:10.385Z,99129.88
2022-09-21T03:52:38.633Z,99126.50
2022-09-21T03:55:07.243Z,99125.91
2022-09-21T03:57:34.539Z,99123.69
2022-09-21T04:00:03.970Z,99126.28
2022-09-21T04:02:32.115Z,99124.19
2022-09-21T04:04:58.915Z,99123.88
2022-09-21T04:07:26.352Z,99129.88
2022-09-21T04:09:54.117Z,99130.19
2022-09-21T04:12:23.904Z,99128.09
2022-09-21T04:14:50.568Z,99131.44
2022-09-21T04:17:17.323Z,99134.28
2022-09-21T04:19:47.842Z,99127.47
2022-09-21T04:22:14.866Z,99129.88
2022-09-21T04:24:41.573Z,99135.53
2022-09-21T04:27:08.816Z,99136.19
2022-09-21T04:29:36.110Z,99136.38
2022-09-21T04:32:03.293Z,99143.69
2022-09-21T04:34:31.237Z,99142.03
2022-09-21T04:36:58.591Z,99139.25
2022-09-21T04:39:26.312Z,99132.31
2022-09-21T04:41:53.227Z,99143.84
2022-09-21T04:44:19.995Z,99145.34
2022-09-21T04:46:47.179Z,99149.28
2022-09-21T04:49:14.145Z,99150.34
2022-09-21T04:51:40.892Z,99155.78
2022-09-21T04:54:07.839Z,99161.22
2022-09-21T04:56:34.995Z,99160.31
2022-09-21T04:59:01.644Z,99155.41
2022-09-21T05:01:28.972Z,99161.78
2022-09-21T05:03:55.934Z,99154.78
2022-09-21T05:06:22.587Z,99166.09
2022-09-21T05:09:07.917Z,99155.66
2022-09-21T05:11:34.681Z,99166.47
2022-09-21T05:14:01.409Z,99168.59
2022-09-21T05:16:28.096Z,99159.84
2022-09-21T05:18:57.453Z,99165.09
2022-09-21T05:21:24.194Z,99170.09
2022-09-21T05:23:51.108Z,99164.06
2022-09-21T05:26:17.822Z,99170.69
2022-09-21T05:28:44.695Z,99172.47
2022-09-21T05:31:18.046Z,99169.63
2022-09-21T05:33:52.036Z,99174.03
2022-09-21T05:36:30.727Z,99179.38
2022-09-21T05:38:57.588Z,99176.53
2022-09-21T05:41:24.448Z,99172.38
2022-09-21T05:43:51.346Z,99180.03
2022-09-21T05:46:32.915Z,99176.66
2022-09-21T05:49:23.074Z,99176.03
2022-09-21T05:52:03.048Z,99180.69
2022-09-21T05:54:41.611Z,99178.25
2022-09-21T05:57:30.683Z,99176.28
2022-09-21T06:00:10.675Z,99194.00
2022-09-21T06:03:24.559Z,99186.56
2022-09-21T06:05:51.280Z,99192.66
2022-09-21T06:08:17.947Z,99187.94
2022-09-21T06:10:44.728Z,99196.13
2022-09-21T06:13:11.753Z,99194.66
2022-09-21T06:15:38.632Z,99199.91
2022-09-21T06:18:08.932Z,99200.47
2022-09-21T06:20:35.864Z,99204.56
2022-09-21T06:23:06.820Z,99198.53
2022-09-21T06:25:33.432Z,99205.72
2022-09-21T06:28:07.791Z,99202.81
2022-09-21T06:30:34.931Z,99199.34
2022-09-21T06:33:02.498Z,99204.72
2022-09-21T06:35:29.869Z,99212.38
2022-09-21T06:38:00.713Z,99205.25
2022-09-21T06:40:28.663Z,99208.84
2022-09-21T06:42:59.591Z,99207.94
2022-09-21T06:45:27.596Z,99203.56
2022-09-21T06:47:54.332Z,99207.66
2022-09-21T06:50:21.439Z,99211.44
2022-09-21T06:52:48.145Z,99212.34
2022-09-21T06:55:18.093Z,99211.56
2022-09-21T06:57:45.041Z,99208.72
2022-09-21T07:00:12.814Z,99206.03
2022-09-21T07:02:43.507Z,99208.84
2022-09-21T07:05:10.351Z,99204.34
2022-09-21T07:07:36.989Z,99201.09
2022-09-21T07:10:05.861Z,99201.97
2022-09-21T07:12:36.063Z,99203.50
2022-09-21T07:15:03.746Z,99203.34
2022-09-21T07:17:38.299Z,99205.84
2022-09-21T07:20:06.420Z,99200.22
2022-09-21T07:22:33.187Z,99205.66
2022-09-21T07:25:00.055Z,99200.81
2022-09-21T07:27:28.074Z,99199.13
2022-09-21T07:29:54.807Z,99203.69
2022-09-21T07:32:21.732Z,99209.09
2022-09-21T07:34:48.413Z,99199.00
2022-09-21T07:37:15.292Z,99207.44
2022-09-21T07:39:41.975Z,99205.75
2022-09-21T07:42:08.768Z,99204.66
2022-09-21T07:44:35.474Z,99209.97
2022-09-21T07:47:03.510Z,99212.34
2022-09-21T07:49:30.250Z,99211.59
2022-09-21T07:52:01.386Z,99216.94
2022-09-21T07:54:29.558Z,99209.91
2022-09-21T07:57:15.266Z,99210.88
2022-09-21T07:59:41.921Z,99207.72
2022-09-21T08:02:08.599Z,99212.19
2022-09-21T08:04:35.308Z,99213.94
2022-09-21T08:07:01.906Z,99208.75
2022-09-21T08:09:28.540Z,99210.34
2022-09-21T08:11:55.815Z,99209.41
2022-09-21T08:14:26.819Z,99209.31
2022-09-21T08:16:53.828Z,99211.72
2022-09-21T08:19:21.053Z,99209.09
2022-09-21T08:21:56.303Z,99206.84
2022-09-21T08:24:25.900Z,99207.44
2022-09-21T08:26:53.205Z,99211.19
2022-09-21T08:29:19.935Z,99207.00
2022-09-21T08:31:47.010Z,99209.50
2022-09-21T08:34:14.338Z,99207.66
2022-09-21T08:36:41.214Z,99209.72
2022-09-21T08:39:09.048Z,99207.53
2022-09-21T08:41:58.277Z,99207.91
2022-09-21T08:44:29.092Z,99212.03
2022-09-21T08:47:09.787Z,99212.69
2022-09-21T08:49:38.277Z,99215.56
2022-09-21T08:52:14.748Z,99212.91
2022-09-21T08:54:46.970Z,99207.81
2022-09-21T08:57:15.093Z,99205.13
2022-09-21T08:59:47.195Z,99209.06
2022-09-21T09:02:52.535Z,99191.75
2022-09-21T09:05:44.190Z,99197.66
2022-09-21T09:08:35.430Z,99185.09
2022-09-21T09:11:06.460Z,99187.13
2022-09-21T09:13:55.922Z,99189.25
2022-09-21T09:16:47.810Z,99184.97
2022-09-21T09:19:29.050Z,99180.69
2022-09-21T09:21:56.648Z,99183.84
2022-09-21T09:24:42.669Z,99175.91
2022-09-21T09:27:20.872Z,99178.22
2022-09-21T09:30:04.226Z,99183.31
2022-09-21T09:32:43.487Z,99167.81
2022-09-21T09:35:25.461Z,99169.19
2022-09-21T09:37:55.174Z,99173.34
2022-09-21T09:40:55.164Z,99175.69
2022-09-21T09:43:38.715Z,99169.09
2022-09-21T09:46:20.559Z,99185.16
2022-09-21T09:49:05.005Z,99176.34
2022-09-21T09:51:35.253Z,99165.69
2022-09-21T09:54:06.894Z,99164.50
2022-09-21T09:56:36.200Z,99166.50
2022-09-21T09:59:08.301Z,99157.91
2022-09-21T10:01:44.420Z,99159.09
2022-09-21T10:04:12.964Z,99161.72
2022-09-21T10:06:45.349Z,99158.72
2022-09-21T10:09:19.474Z,99152.13
2022-09-21T10:11:46.608Z,99148.50
2022-09-21T10:14:21.202Z,99137.47
2022-09-21T10:16:51.672Z,99145.50
2022-09-21T10:19:24.030Z,99143.66
2022-09-21T10:22:01.629Z,99134.34
2022-09-21T10:24:34.065Z,99142.50
2022-09-21T10:27:14.441Z,99139.59
2022-09-21T10:29:43.391Z,99140.50
2022-09-21T10:32:14.940Z,99134.47
2022-09-21T10:35:00.476Z,99131.72
2022-09-21T10:37:37.280Z,99126.22
2022-09-21T10:40:05.325Z,99133.38
2022-09-21T10:42:36.511Z,99128.88
2022-09-21T10:45:20.224Z,99126.78
2022-09-21T10:47:53.077Z,99123.88
2022-09-21T10:50:26.101Z,99119.97
2022-09-21T10:53:01.177Z,99114.16
2022-09-21T10:55:30.138Z,99115.75
2022-09-21T10:57:57.083Z,99122.16
2022-09-21T11:00:34.994Z,99116.59
2022-09-21T11:03:35.797Z,99118.88
2022-09-21T11:06:15.394Z,99113.25
2022-09-21T11:08:50.104Z,99118.06
2022-09-21T11:11:27.288Z,99118.41
2022-09-21T11:14:05.053Z,99111.03
2022-09-21T11:16:42.063Z,99117.00
2022-09-21T11:19:18.855Z,99114.50
2022-09-21T11:22:02.435Z,99107.22
2022-09-21T11:24:37.140Z,99107.56
2022-09-21T11:27:11.554Z,99106.38
2022-09-21T11:29:51.518Z,99100.75
2022-09-21T11:32:49.476Z,99101.09
2022-09-21T11:35:33.019Z,99095.44
2022-09-21T11:38:34.281Z,99103.44
2022-09-21T11:41:18.882Z,99089.47
2022-09-21T11:43:51.540Z,99090.47
2022-09-21T11:46:40.844Z,99079.38
2022-09-21T11:49:40.177Z,99079.72
2022-09-21T11:52:32.397Z,99072.22
2022-09-21T11:55:16.861Z,99074.38
2022-09-21T11:58:10.664Z,99071.16
2022-09-21T12:00:45.721Z,99062.66
2022-09-21T12:03:38.237Z,99064.50
2022-09-21T12:06:28.390Z,99059.63
2022-09-21T12:09:10.507Z,99058.97
2022-09-21T12:11:44.778Z,99055.13
2022-09-21T12:14:34.517Z,99062.44
2022-09-21T12:17:24.471Z,99051.09
2022-09-21T12:20:05.315Z,99053.09
2022-09-21T12:22:35.206Z,99054.78
2022-09-21T12:25:10.911Z,99053.84
2022-09-21T12:27:40.134Z,99045.59
2022-09-21T12:30:17.119Z,99044.91
2022-09-21T12:32:58.119Z,99052.09
2022-09-21T12:35:45.067Z,99045.50
2022-09-21T12:41:37.368Z,99041.84
2022-09-21T12:44:20.144Z,99038.22
2022-09-21T12:47:09.489Z,99041.38
2022-09-21T12:49:45.484Z,99039.81
2022-09-21T12:52:24.737Z,99041.22
2022-09-21T12:55:19.381Z,99048.25
2022-09-21T12:58:14.499Z,99050.38
2022-09-21T13:00:57.609Z,99042.81
2022-09-21T13:03:36.214Z,99037.09
2022-09-21T13:06:15.924Z,99038.28
2022-09-21T13:08:44.767Z,99035.13
2022-09-21T13:11:11.666Z,99027.53
2022-09-21T13:13:41.655Z,99037.44
2022-09-21T13:16:31.037Z,99041.91
2022-09-21T13:19:03.443Z,99033.56
2022-09-21T13:21:32.358Z,99028.53
2022-09-21T13:24:01.483Z,99034.16
2022-09-21T13:26:40.943Z,99031.53
2022-09-21T13:29:19.902Z,99026.72
2022-09-21T13:32:07.797Z,99027.63
2022-09-21T13:34:45.378Z,99030.84
2022-09-21T13:37:11.950Z,99029.19
2022-09-21T13:39:50.636Z,99029.38
2022-09-21T13:42:29.410Z,99016.47
2022-09-21T13:44:59.978Z,99017.88
2022-09-21T13:47:32.271Z,99008.41
2022-09-21T13:50:12.642Z,99012.16
2022-09-21T13:52:44.743Z,99009.16
2022-09-21T13:55:28.703Z,99006.75
2022-09-21T13:57:57.210Z,99006.97
2022-09-21T14:00:36.402Z,99020.31
2022-09-21T14:03:22.461Z,99006.06
2022-09-21T14:06:20.506Z,99006.75
2022-09-21T14:08:58.128Z,99006.94
2022-09-21T14:11:39.291Z,99008.28
2022-09-21T14:14:12.329Z,98993.28
2022-09-21T14:16:39.576Z,98997.31
2022-09-21T14:19:18.106Z,98998.16
2022-09-21T14:22:05.561Z,98995.31
2022-09-21T14:24:38.581Z,98995.59
2022-09-21T14:27:31.657Z,98991.72
2022-09-21T14:30:22.244Z,98998.44
2022-09-21T14:33:07.411Z,98992.94
2022-09-21T14:35:37.904Z,98988.63
2022-09-21T14:38:12.738Z,98993.16
2022-09-21T14:40:42.433Z,98988.91
2022-09-21T14:43:12.532Z,98991.88
2022-09-21T14:46:11.885Z,98992.84
2022-09-21T14:49:16.119Z,98985.69
2022-09-21T14:51:55.768Z,98977.38
2022-09-21T14:55:02.744Z,98975.22
2022-09-21T14:57:54.103Z,98972.38
2022-09-21T15:00:35.578Z,98963.53
2022-09-21T15:03:30.713Z,98966.69
2022-09-21T15:06:31.066Z,98971.38
2022-09-21T15:09:22.532Z,98965.03
2022-09-21T15:11:56.699Z,98964.88
2022-09-21T15:14:32.430Z,98960.22
2022-09-21T15:16:59.246Z,98962.56
2022-09-21T15:19:30.152Z,98955.19
2022-09-21T15:22:15.202Z,98953.50
2022-09-21T15:24:57.290Z,98960.19
2022-09-21T15:27:33.473Z,98957.06
2022-09-21T15:30:03.227Z,98951.56
2022-09-21T15:32:47.651Z,98951.56
2022-09-21T15:35:20.235Z,98951.25
2022-09-21T15:37:47.612Z,98947.53
2022-09-21T15:40:23.374Z,98948.47
2022-09-21T15:43:15.904Z,98938.81
2022-09-21T15:45:51.646Z,98945.56
2022-09-21T15:48:19.913Z,98944.56
2022-09-21T15:50:50.657Z,98946.09
2022-09-21T15:53:23.746Z,98948.63
2022-09-21T15:55:50.716Z,98945.97
2022-09-21T15:58:29.885Z,98951.50
2022-09-21T16:00:57.769Z,98951.16
2022-09-21T16:03:26.064Z,98949.69
2022-09-21T16:05:55.453Z,98951.22
2022-09-21T16:08:34.630Z,98950.34
2022-09-21T16:11:26.282Z,98954.69
2022-09-21T16:14:32.827Z,98954.38
2022-09-21T16:17:27.221Z,98953.03
2022-09-21T16:19:54.008Z,98954.06
2022-09-21T16:22:30.278Z,98952.72
2022-09-21T16:24:59.489Z,98953.38
2022-09-21T16:27:28.878Z,98955.03
2022-09-21T16:29:57.299Z,98965.53
2022-09-21T16:32:32.077Z,98966.03
2022-09-21T16:35:31.715Z,98961.88
2022-09-21T16:37:59.166Z,98959.19
2022-09-21T16:40:28.185Z,98959.19
2022-09-21T16:42:55.560Z,98961.16
2022-09-21T16:45:31.810Z,98966.50
2022-09-21T16:47:59.567Z,98972.63
2022-09-21T16:50:26.532Z,98966.28
2022-09-21T16:52:53.164Z,98973.88
2022-09-21T16:55:22.468Z,98969.53
2022-09-21T16:57:51.089Z,98975.66
2022-09-21T17:00:22.152Z,98981.97
2022-09-21T17:02:49.378Z,98975.34
2022-09-21T17:05:19.412Z,98974.31
2022-09-21T17:07:54.319Z,98972.81
2022-09-21T17:10:24.317Z,98975.44
2022-09-21T17:12:51.956Z,98980.03
2022-09-21T17:15:18.723Z,98982.19
2022-09-21T17:17:45.403Z,98975.69
2022-09-21T17:20:21.520Z,98980.72
2022-09-21T17:22:48.592Z,98980.16
2022-09-21T17:25:15.354Z,98980.66
2022-09-21T17:27:42.431Z,98981.97
2022-09-21T17:30:13.374Z,98974.56
2022-09-21T17:32:42.624Z,98974.56
2022-09-21T17:35:33.985Z,98976.09
2022-09-21T17:38:00.679Z,98976.03
2022-09-21T17:40:27.647Z,98984.06
2022-09-21T17:43:05.178Z,98978.97
2022-09-21T17:45:42.612Z,98986.53
2022-09-21T17:48:13.872Z,98990.31
2022-09-21T17:50:40.621Z,98987.97
2022-09-21T17:53:28.002Z,98989.78
2022-09-21T17:55:57.886Z,98989.97
2022-09-21T17:58:54.001Z,98987.97
2022-09-21T18:01:39.680Z,99000.69
2022-09-21T18:04:08.346Z,98997.94
2022-09-21T18:06:35.448Z,98998.53
2022-09-21T18:09:03.246Z,99007.84
2022-09-21T18:12:07.609Z,99005.50
2022-09-21T18:14:48.633Z,99003.28
2022-09-21T18:17:48.277Z,99009.00
2022-09-21T18:20:23.639Z,99008.63
2022-09-21T18:23:02.363Z,99007.56
2022-09-21T18:25:34.335Z,99010.75
2022-09-21T18:28:17.217Z,99012.34
2022-09-21T18:30:46.342Z,99019.06
2022-09-21T18:33:31.192Z,99021.16
2022-09-21T18:36:10.575Z,99019.28
2022-09-21T18:38:53.184Z,99017.81
2022-09-21T18:41:46.074Z,99021.41
2022-09-21T18:44:26.180Z,99018.91
2022-09-21T18:47:11.905Z,99020.59
2022-09-21T18:50:03.942Z,99031.72
2022-09-21T18:52:39.665Z,99033.13
2022-09-21T18:55:18.339Z,99031.72
2022-09-21T18:57:45.462Z,99030.47
2022-09-21T19:00:13.475Z,99041.47
2022-09-21T19:02:53.499Z,99035.91
2022-09-21T19:05:27.722Z,99037.97
2022-09-21T19:08:09.353Z,99041.06
2022-09-21T19:10:44.301Z,99038.53
2022-09-21T19:13:31.703Z,99043.25
2022-09-21T19:16:05.203Z,99042.66
2022-09-21T19:18:50.580Z,99043.91
2022-09-21T19:21:28.216Z,99042.38
2022-09-21T19:24:06.548Z,99040.41
2022-09-21T19:26:48.164Z,99042.75
2022-09-21T19:29:19.870Z,99045.41
2022-09-21T19:31:46.957Z,99042.50
2022-09-21T19:34:16.634Z,99038.56
2022-09-21T19:36:47.201Z,99046.50
2022-09-21T19:39:14.497Z,99042.16
2022-09-21T19:41:49.230Z,99041.56
2022-09-21T19:44:44.628Z,99039.34
2022-09-21T19:47:25.698Z,99036.84
2022-09-21T19:49:54.614Z,99040.56
2022-09-21T19:52:28.723Z,99036.28
2022-09-21T19:55:14.208Z,99041.94
2022-09-21T19:58:00.125Z,99038.47
2022-09-21T20:00:27.000Z,99041.78
2022-09-21T20:03:03.471Z,99045.25
2022-09-21T20:05:35.350Z,99042.28
2022-09-21T20:08:16.474Z,99046.03
2022-09-21T20:11:00.624Z,99038.09
2022-09-21T20:13:33.064Z,99040.94
2022-09-21T20:16:19.064Z,99046.59
2022-09-21T20:18:55.074Z,99046.47
2022-09-21T20:21:22.674Z,99039.91
2022-09-21T20:23:58.158Z,99047.66
2022-09-21T20:26:26.472Z,99042.03
2022-09-21T20:28:53.867Z,99036.22
2022-09-21T20:31:22.459Z,99039.47
2022-09-21T20:33:49.592Z,99040.81
2022-09-21T20:36:16.258Z,99039.28
2022-09-21T20:38:42.950Z,99045.50
2022-09-21T20:41:12.020Z,99046.47
2022-09-21T20:43:38.945Z,99042.94
2022-09-21T20:46:05.809Z,99039.47
2022-09-21T20:48:32.822Z,99042.47
2022-09-21T20:51:01.558Z,99046.59
2022-09-21T20:53:28.256Z,99054.44
2022-09-21T20:55:57.194Z,99055.19
2022-09-21T20:58:24.815Z,99058.28
2022-09-21T21:00:57.911Z,99061.75
2022-09-21T21:03:25.330Z,99059.25
2022-09-21T21:05:51.970Z,99068.72
2022-09-21T21:08:18.845Z,99063.44
2022-09-21T21:10:46.914Z,99060.94
2022-09-21T21:13:13.704Z,99066.47
2022-09-21T21:15:40.647Z,99061.44
2022-09-21T21:18:11.187Z,99065.44
2022-09-21T21:20:37.886Z,99061.34
2022-09-21T21:23:07.925Z,99067.09
2022-09-21T21:25:35.265Z,99064.09
2022-09-21T21:28:02.497Z,99069.84
2022-09-21T21:30:29.097Z,99063.75
2022-09-21T21:32:56.171Z,99066.50
2022-09-21T21:35:22.882Z,99062.06
2022-09-21T21:37:49.742Z,99060.13
2022-09-21T21:40:16.444Z,99060.28
2022-09-21T21:42:43.120Z,99054.53
2022-09-21T21:45:12.882Z,99057.75
2022-09-21T21:47:40.832Z,99061.47
2022-09-21T21:50:09.800Z,99060.38
2022-09-21T21:52:36.854Z,99064.56
2022-09-21T21:55:04.533Z,99067.56
2022-09-21T21:57:31.187Z,99062.22
2022-09-21T21:59:57.974Z,99065.47
2022-09-21T22:02:24.732Z,99068.47
2022-09-21T22:04:51.471Z,99070.28
2022-09-21T22:07:18.534Z,99066.94
2022-09-21T22:09:45.189Z,99062.84
2022-09-21T22:12:12.031Z,99058.81
2022-09-21T22:14:38.640Z,99056.91
2022-09-21T22:17:05.716Z,99056.56
2022-09-21T22:19:33.053Z,99059.19
2022-09-21T22:21:59.961Z,99064.47
2022-09-21T22:24:26.848Z,99060.75
2022-09-21T22:26:53.596Z,99058.59
2022-09-21T22:29:20.317Z,99054.41
2022-09-21T22:31:49.138Z,99058.94
2022-09-21T22:34:16.401Z,99056.56
2022-09-21T22:36:45.924Z,99056.78
2022-09-21T22:39:13.266Z,99057.84
2022-09-21T22:41:41.799Z,99057.88
2022-09-21T22:44:09.246Z,99058.34
2022-09-21T22:46:36.558Z,99057.16
2022-09-21T22:49:03.609Z,99063.50
2022-09-21T22:51:30.395Z,99056.19
2022-09-21T22:53:57.882Z,99060.22
2022-09-21T22:56:29.053Z,99059.06
2022-09-21T22:58:57.822Z,99054.47
2022-09-21T23:01:38.714Z,99051.25
2022-09-21T23:04:10.999Z,99055.59
2022-09-21T23:06:39.522Z,99052.81
2022-09-21T23:09:09.548Z,99051.03
2022-09-21T23:11:38.721Z,99045.31
2022-09-21T23:14:05.655Z,99039.81
2022-09-21T23:16:32.506Z,99034.28
2022-09-21T23:19:00.492Z,99035.38
2022-09-21T23:21:29.638Z,99044.34
2022-09-21T23:23:59.836Z,99043.59
2022-09-21T23:26:28.137Z,99045.53
2022-09-21T23:28:57.135Z,99044.09
2022-09-21T23:31:26.640Z,99034.88
2022-09-21T23:33:56.418Z,99033.91
2022-09-21T23:36:28.434Z,99030.03
2022-09-21T23:38:56.102Z,99036.56
2022-09-21T23:41:34.178Z,99036.69
2022-09-21T23:44:01.669Z,99034.69
2022-09-21T23:46:34.225Z,99034.81
2022-09-21T23:49:01.279Z,99030.69
2022-09-21T23:51:28.204Z,99028.88
2022-09-21T23:53:54.889Z,99028.69
2022-09-21T23:56:22.780Z,99029.66
2022-09-21T23:58:49.865Z,99032.22
